createdAt,value
2022-09-15T00:01:11.427Z,97083.47
2022-09-15T00:03:45.958Z,97082.69
2022-09-15T00:06:13.708Z,97078.88
2022-09-15T00:08:41.728Z,97078.88
2022-09-15T00:11:18.612Z,97079.16
2022-09-15T00:13:46.782Z,97073.78
2022-09-15T00:16:15.682Z,97072.72
2022-09-15T00:18:44.593Z,97077.28
2022-09-15T00:21:15.253Z,97065.69
2022-09-15T00:23:44.490Z,97066.53
2022-09-15T00:26:15.176Z,97057.63
2022-09-15T00:28:43.400Z,97046.88
2022-09-15T00:31:14.587Z,97047.69
2022-09-15T00:33:42.376Z,97045.00
2022-09-15T00:36:11.676Z,97042.31
2022-09-15T00:38:40.118Z,97037.72
2022-09-15T00:41:10.833Z,97048.75
2022-09-15T00:43:43.308Z,97036.94
2022-09-15T00:46:11.757Z,97037.72
2022-09-15T00:49:02.231Z,97028.88
2022-09-15T00:52:11.550Z,97026.16
2022-09-15T00:54:59.869Z,97018.91
2022-09-15T00:57:29.608Z,97022.66
2022-09-15T00:59:59.730Z,97014.59
2022-09-15T01:02:31.748Z,97013.50
2022-09-15T01:05:01.893Z,97007.34
2022-09-15T01:07:41.830Z,97010.03
2022-09-15T01:10:15.237Z,96998.16
2022-09-15T01:12:43.747Z,97001.97
2022-09-15T01:15:12.054Z,96993.88
2022-09-15T01:17:48.933Z,96981.50
2022-09-15T01:20:40.777Z,96989.56
2022-09-15T01:23:52.111Z,96990.38
2022-09-15T01:26:31.717Z,96989.56
2022-09-15T01:29:37.546Z,96980.44
2022-09-15T01:32:39.086Z,96977.75
2022-09-15T01:35:21.918Z,96985.81
2022-09-15T01:38:08.295Z,96984.19
2022-09-15T01:40:57.125Z,96973.44
2022-09-15T01:43:27.167Z,96975.03
2022-09-15T01:45:54.613Z,96976.91
2022-09-15T01:48:25.529Z,96980.44
2022-09-15T01:50:57.464Z,96980.44
2022-09-15T01:53:26.434Z,96968.03
2022-09-15T01:56:08.527Z,96969.66
2022-09-15T01:58:38.740Z,96963.47
2022-09-15T02:01:09.013Z,96969.13
2022-09-15T02:03:51.919Z,96968.03
2022-09-15T02:06:37.310Z,96973.44
2022-09-15T02:09:20.978Z,96967.25
2022-09-15T02:12:03.344Z,96958.06
2022-09-15T02:14:35.272Z,96947.63
2022-09-15T02:17:02.922Z,96941.13
2022-09-15T02:19:36.247Z,96949.22
2022-09-15T02:22:12.221Z,96940.34
2022-09-15T02:24:48.482Z,96941.94
2022-09-15T02:27:22.109Z,96947.31
2022-09-15T02:29:53.842Z,96939.53
2022-09-15T02:32:25.194Z,96943.03
2022-09-15T02:34:55.454Z,96934.16
2022-09-15T02:37:25.020Z,96935.75
2022-09-15T02:39:58.090Z,96938.44
2022-09-15T02:42:31.480Z,96936.84
2022-09-15T02:45:00.663Z,96931.47
2022-09-15T02:47:28.806Z,96928.78
2022-09-15T02:49:56.804Z,96934.16
2022-09-15T02:52:24.373Z,96931.47
2022-09-15T02:54:51.897Z,96927.16
2022-09-15T02:57:19.822Z,96931.75
2022-09-15T03:00:06.887Z,96928.78
2022-09-15T03:02:35.749Z,96928.78
2022-09-15T03:05:03.530Z,96922.88
2022-09-15T03:07:31.937Z,96922.56
2022-09-15T03:10:00.734Z,96920.72
2022-09-15T03:12:28.089Z,96918.03
2022-09-15T03:14:55.372Z,96920.72
2022-09-15T03:17:22.876Z,96920.97
2022-09-15T03:19:50.694Z,96919.63
2022-09-15T03:22:18.070Z,96923.41
2022-09-15T03:24:45.689Z,96927.16
2022-09-15T03:27:13.019Z,96927.94
2022-09-15T03:29:40.504Z,96916.69
2022-09-15T03:32:08.113Z,96927.16
2022-09-15T03:34:36.317Z,96918.03
2022-09-15T03:37:04.056Z,96917.19
2022-09-15T03:39:31.706Z,96914.81
2022-09-15T03:41:59.824Z,96921.78
2022-09-15T03:44:27.444Z,96911.81
2022-09-15T03:46:54.943Z,96913.72
2022-09-15T03:49:22.329Z,96918.03
2022-09-15T03:51:49.964Z,96918.03
2022-09-15T03:54:17.928Z,96911.03
2022-09-15T03:56:48.910Z,96915.34
2022-09-15T03:59:18.840Z,96909.94
2022-09-15T04:01:48.862Z,96912.63
2022-09-15T04:04:16.389Z,96911.81
2022-09-15T04:06:44.703Z,96918.03
2022-09-15T04:09:12.314Z,96911.81
2022-09-15T04:11:40.858Z,96912.63
2022-09-15T04:14:08.481Z,96905.63
2022-09-15T04:16:36.470Z,96901.88
2022-09-15T04:19:03.968Z,96908.84
2022-09-15T04:21:32.022Z,96908.84
2022-09-15T04:23:59.654Z,96904.84
2022-09-15T04:26:33.397Z,96905.63
2022-09-15T04:29:04.475Z,96910.22
2022-09-15T04:31:33.678Z,96912.63
2022-09-15T04:34:01.080Z,96911.03
2022-09-15T04:36:29.532Z,96911.81
2022-09-15T04:38:58.089Z,96915.59
2022-09-15T04:41:26.709Z,96915.59
2022-09-15T04:43:54.282Z,96914.81
2022-09-15T04:46:21.860Z,96914.81
2022-09-15T04:48:49.534Z,96912.13
2022-09-15T04:51:20.301Z,96909.44
2022-09-15T04:53:48.388Z,96907.25
2022-09-15T04:56:17.818Z,96904.56
2022-09-15T04:58:48.241Z,96901.88
2022-09-15T05:01:22.456Z,96896.50
2022-09-15T05:03:50.512Z,96898.09
2022-09-15T05:06:20.098Z,96898.09
2022-09-15T05:08:49.036Z,96895.94
2022-09-15T05:11:17.256Z,96894.34
2022-09-15T05:13:44.981Z,96895.13
2022-09-15T05:16:15.330Z,96894.34
2022-09-15T05:18:45.194Z,96892.44
2022-09-15T05:21:14.263Z,96890.53
2022-09-15T05:23:42.262Z,96888.13
2022-09-15T05:26:13.897Z,96907.78
2022-09-15T05:28:41.701Z,96913.16
2022-09-15T05:31:26.802Z,96913.16
2022-09-15T05:33:54.512Z,96912.06
2022-09-15T05:36:25.281Z,96912.06
2022-09-15T05:38:55.592Z,96906.41
2022-09-15T05:41:24.327Z,96907.22
2022-09-15T05:43:53.478Z,96916.91
2022-09-15T05:46:21.183Z,96919.88
2022-09-15T05:48:48.763Z,96912.06
2022-09-15T05:51:16.161Z,96912.06
2022-09-15T05:53:43.546Z,96918.25
2022-09-15T05:56:14.254Z,96912.06
2022-09-15T05:58:42.994Z,96929.84
2022-09-15T06:01:16.123Z,96925.53
2022-09-15T06:03:44.294Z,96922.03
2022-09-15T06:06:12.201Z,96948.16
2022-09-15T06:08:50.760Z,96934.38
2022-09-15T06:11:22.637Z,96948.16
2022-09-15T06:13:50.446Z,96949.75
2022-09-15T06:16:20.930Z,96948.16
2022-09-15T06:18:50.483Z,96951.91
2022-09-15T06:21:20.542Z,96953.53
2022-09-15T06:23:58.870Z,96957.28
2022-09-15T06:26:27.620Z,96964.28
2022-09-15T06:29:00.779Z,96962.66
2022-09-15T06:31:31.509Z,96977.75
2022-09-15T06:33:59.414Z,96974.22
2022-09-15T06:36:29.204Z,96985.81
2022-09-15T06:38:57.581Z,96986.88
2022-09-15T06:41:25.718Z,96989.56
2022-09-15T06:43:53.326Z,97001.44
2022-09-15T06:46:23.844Z,97010.28
2022-09-15T06:48:51.942Z,97015.69
2022-09-15T06:51:22.289Z,97034.25
2022-09-15T06:53:50.110Z,97032.63
2022-09-15T06:56:20.681Z,97039.91
2022-09-15T06:58:51.398Z,97054.13
2022-09-15T07:01:31.253Z,97059.53
2022-09-15T07:04:00.880Z,97067.59
2022-09-15T07:06:31.385Z,97076.75
2022-09-15T07:08:59.281Z,97088.06
2022-09-15T07:11:26.699Z,97099.09
2022-09-15T07:13:54.378Z,97111.75
2022-09-15T07:16:23.000Z,97120.59
2022-09-15T07:18:50.529Z,97120.88
2022-09-15T07:21:20.441Z,97130.03
2022-09-15T07:23:48.892Z,97141.34
2022-09-15T07:26:20.101Z,97132.72
2022-09-15T07:28:50.362Z,97137.81
2022-09-15T07:31:21.396Z,97138.66
2022-09-15T07:33:49.578Z,97148.56
2022-09-15T07:36:17.417Z,97155.06
2022-09-15T07:38:47.798Z,97163.91
2022-09-15T07:41:18.776Z,97166.63
2022-09-15T07:43:52.364Z,97170.94
2022-09-15T07:46:22.206Z,97168.25
2022-09-15T07:48:51.859Z,97160.16
2022-09-15T07:51:19.932Z,97161.78
2022-09-15T07:53:48.873Z,97165.56
2022-09-15T07:56:18.571Z,97179.53
2022-09-15T07:58:46.986Z,97184.09
2022-09-15T08:01:16.133Z,97194.06
2022-09-15T08:03:46.408Z,97211.84
2022-09-15T08:06:14.827Z,97203.22
2022-09-15T08:08:45.770Z,97220.16
2022-09-15T08:11:19.609Z,97220.44
2022-09-15T08:13:49.627Z,97213.97
2022-09-15T08:16:22.741Z,97224.75
2022-09-15T08:18:53.493Z,97236.31
2022-09-15T08:21:21.915Z,97224.75
2022-09-15T08:23:55.952Z,97237.09
2022-09-15T08:26:24.654Z,97239.00
2022-09-15T08:28:52.112Z,97253.25
2022-09-15T08:31:20.155Z,97259.72
2022-09-15T08:33:52.594Z,97262.41
2022-09-15T08:36:20.349Z,97262.41
2022-09-15T08:38:48.353Z,97267.78
2022-09-15T08:41:21.599Z,97266.16
2022-09-15T08:44:04.844Z,97259.72
2022-09-15T08:46:44.383Z,97269.41
2022-09-15T08:49:50.038Z,97274.78
2022-09-15T08:52:26.813Z,97275.56
2022-09-15T08:54:58.014Z,97274.78
2022-09-15T08:57:26.092Z,97277.47
2022-09-15T08:59:55.201Z,97270.19
2022-09-15T09:02:46.855Z,97280.97
2022-09-15T09:05:43.202Z,97280.16
2022-09-15T09:08:29.431Z,97287.16
2022-09-15T09:11:26.033Z,97281.78
2022-09-15T09:14:05.977Z,97281.78
2022-09-15T09:17:08.846Z,97286.06
2022-09-15T09:19:57.564Z,97278.00
2022-09-15T09:22:30.347Z,97276.94
2022-09-15T09:25:00.118Z,97276.94
2022-09-15T09:27:33.806Z,97282.88
2022-09-15T09:30:14.577Z,97287.41
2022-09-15T09:32:47.542Z,97280.19
2022-09-15T09:35:32.346Z,97276.66
2022-09-15T09:38:02.418Z,97278.28
2022-09-15T09:40:31.594Z,97277.47
2022-09-15T09:43:00.968Z,97284.47
2022-09-15T09:45:28.549Z,97278.28
2022-09-15T09:48:04.331Z,97278.28
2022-09-15T09:50:43.130Z,97278.28
2022-09-15T09:53:29.029Z,97284.47
2022-09-15T09:56:15.938Z,97280.69
2022-09-15T09:58:45.035Z,97281.50
2022-09-15T10:01:19.170Z,97268.59
2022-09-15T10:03:47.226Z,97267.25
2022-09-15T10:06:19.316Z,97269.94
2022-09-15T10:09:04.219Z,97268.84
2022-09-15T10:11:52.759Z,97268.03
2022-09-15T10:14:33.244Z,97263.44
2022-09-15T10:17:02.798Z,97263.44
2022-09-15T10:19:33.158Z,97268.84
2022-09-15T10:22:02.042Z,97253.78
2022-09-15T10:24:35.602Z,97263.75
2022-09-15T10:27:14.909Z,97258.63
2022-09-15T10:29:42.710Z,97264.81
2022-09-15T10:32:36.157Z,97258.63
2022-09-15T10:35:14.092Z,97257.00
2022-09-15T10:38:05.097Z,97255.13
2022-09-15T10:40:51.761Z,97257.53
2022-09-15T10:43:36.002Z,97259.69
2022-09-15T10:46:14.431Z,97257.00
2022-09-15T10:49:06.902Z,97257.00
2022-09-15T10:52:02.195Z,97252.72
2022-09-15T10:54:41.916Z,97252.72
2022-09-15T10:57:28.355Z,97251.91
2022-09-15T11:00:17.132Z,97250.03
2022-09-15T11:03:11.752Z,97249.22
2022-09-15T11:06:16.236Z,97243.00
2022-09-15T11:08:54.460Z,97244.63
2022-09-15T11:11:32.133Z,97243.00
2022-09-15T11:14:27.101Z,97243.00
2022-09-15T11:17:33.754Z,97246.78
2022-09-15T11:20:23.061Z,97251.38
2022-09-15T11:23:04.237Z,97246.78
2022-09-15T11:25:36.505Z,97239.25
2022-09-15T11:28:10.029Z,97229.56
2022-09-15T11:30:47.956Z,97239.25
2022-09-15T11:33:31.137Z,97235.47
2022-09-15T11:36:14.390Z,97230.91
2022-09-15T11:38:52.881Z,97227.94
2022-09-15T11:41:31.085Z,97227.13
2022-09-15T11:44:34.035Z,97215.31
2022-09-15T11:47:15.598Z,97208.81
2022-09-15T11:49:52.111Z,97203.22
2022-09-15T11:52:25.958Z,97185.16
2022-09-15T11:55:15.851Z,97195.13
2022-09-15T11:58:01.293Z,97194.84
2022-09-15T12:00:28.865Z,97195.94
2022-09-15T12:03:18.530Z,97192.16
2022-09-15T12:06:17.329Z,97192.16
2022-09-15T12:08:53.454Z,97192.97
2022-09-15T12:11:24.542Z,97191.09
2022-09-15T12:13:53.731Z,97187.59
2022-09-15T12:16:22.027Z,97182.22
2022-09-15T12:18:58.457Z,97194.03
2022-09-15T12:22:01.588Z,97189.75
2022-09-15T12:24:43.786Z,97188.09
2022-09-15T12:27:19.502Z,97194.56
2022-09-15T12:29:52.394Z,97188.09
2022-09-15T12:32:29.911Z,97193.47
2022-09-15T12:34:57.292Z,97212.09
2022-09-15T12:37:29.897Z,97208.59
2022-09-15T12:39:58.262Z,97200.53
2022-09-15T12:42:31.154Z,97195.13
2022-09-15T12:45:03.170Z,97196.16
2022-09-15T12:47:49.771Z,97212.31
2022-09-15T12:50:25.360Z,97198.88
2022-09-15T12:53:04.091Z,97198.88
2022-09-15T12:55:37.669Z,97208.03
2022-09-15T12:58:18.541Z,97208.03
2022-09-15T13:01:13.878Z,97208.03
2022-09-15T13:06:12.913Z,97196.47
2022-09-15T13:08:51.124Z,97190.25
2022-09-15T13:11:50.128Z,97189.47
2022-09-15T13:14:32.376Z,97194.84
2022-09-15T13:17:07.430Z,97182.47
2022-09-15T13:19:41.346Z,97176.25
2022-09-15T13:22:11.833Z,97171.41
2022-09-15T13:24:46.032Z,97169.81
2022-09-15T13:27:21.460Z,97174.09
2022-09-15T13:29:50.728Z,97175.72
2022-09-15T13:32:50.496Z,97179.50
2022-09-15T13:35:28.025Z,97185.69
2022-09-15T13:38:52.457Z,97196.47
2022-09-15T13:41:55.935Z,97196.47
2022-09-15T13:45:04.898Z,97196.72
2022-09-15T13:47:50.955Z,97187.56
2022-09-15T13:50:25.635Z,97186.75
2022-09-15T13:53:15.143Z,97179.78
2022-09-15T13:55:43.918Z,97190.25
2022-09-15T14:01:07.437Z,97192.41
2022-09-15T14:03:52.691Z,97192.41
2022-09-15T14:06:26.022Z,97189.72
2022-09-15T14:08:57.124Z,97191.63
2022-09-15T14:11:33.436Z,97183.53
2022-09-15T14:14:01.397Z,97179.25
2022-09-15T14:16:35.020Z,97156.91
2022-09-15T14:19:24.264Z,97173.03
2022-09-15T14:21:56.274Z,97183.81
2022-09-15T14:24:29.988Z,97171.44
2022-09-15T14:27:07.474Z,97175.72
2022-09-15T14:29:40.656Z,97161.47
2022-09-15T14:32:14.022Z,97161.47
2022-09-15T14:34:43.241Z,97160.69
2022-09-15T14:37:20.954Z,97154.50
2022-09-15T14:40:01.614Z,97155.28
2022-09-15T14:42:41.104Z,97152.59
2022-09-15T14:48:02.895Z,97140.75
2022-09-15T14:50:33.286Z,97140.75
2022-09-15T14:53:03.900Z,97133.78
2022-09-15T14:55:58.066Z,97132.19
2022-09-15T14:58:34.524Z,97134.56
2022-09-15T15:01:08.824Z,97139.16
2022-09-15T15:03:42.208Z,97133.78
2022-09-15T15:06:34.935Z,97123.81
2022-09-15T15:09:25.189Z,97123.00
2022-09-15T15:12:05.006Z,97116.03
2022-09-15T15:14:35.424Z,97123.81
2022-09-15T15:17:08.750Z,97133.78
2022-09-15T15:19:41.371Z,97139.16
2022-09-15T15:22:12.034Z,97137.56
2022-09-15T15:24:49.195Z,97132.19
2022-09-15T15:27:31.879Z,97132.19
2022-09-15T15:30:26.709Z,97141.03
2022-09-15T15:32:59.343Z,97144.00
2022-09-15T15:35:27.802Z,97162.84
2022-09-15T15:38:05.139Z,97162.84
2022-09-15T15:40:33.604Z,97172.53
2022-09-15T15:43:03.309Z,97175.22
2022-09-15T15:45:34.498Z,97175.22
2022-09-15T15:48:04.258Z,97178.97
2022-09-15T15:50:34.693Z,97175.22
2022-09-15T15:53:02.765Z,97175.22
2022-09-15T15:55:41.782Z,97183.00
2022-09-15T15:58:11.000Z,97184.91
2022-09-15T16:00:53.191Z,97187.59
2022-09-15T16:03:21.603Z,97186.50
2022-09-15T16:05:52.988Z,97187.59
2022-09-15T16:08:26.293Z,97179.50
2022-09-15T16:10:55.280Z,97184.38
2022-09-15T16:13:24.649Z,97187.06
2022-09-15T16:16:00.117Z,97193.53
2022-09-15T16:18:29.243Z,97198.91
2022-09-15T16:20:59.162Z,97195.38
2022-09-15T16:23:26.762Z,97199.72
2022-09-15T16:26:05.764Z,97198.91
2022-09-15T16:28:33.447Z,97202.66
2022-09-15T16:31:03.230Z,97212.63
2022-09-15T16:33:34.605Z,97215.59
2022-09-15T16:36:08.249Z,97208.59
2022-09-15T16:38:36.255Z,97219.38
2022-09-15T16:41:10.728Z,97209.41
2022-09-15T16:43:38.192Z,97218.84
2022-09-15T16:46:06.755Z,97220.44
2022-09-15T16:48:34.324Z,97214.25
2022-09-15T16:51:20.881Z,97226.88
2022-09-15T16:53:52.038Z,97225.28
2022-09-15T16:56:19.654Z,97223.66
2022-09-15T16:58:47.127Z,97224.75
2022-09-15T17:01:27.421Z,97235.50
2022-09-15T17:03:57.889Z,97238.19
2022-09-15T17:06:25.486Z,97225.53
2022-09-15T17:08:53.036Z,97223.66
2022-09-15T17:11:25.467Z,97220.69
2022-09-15T17:13:53.477Z,97224.19
2022-09-15T17:16:21.009Z,97224.19
2022-09-15T17:18:50.423Z,97226.88
2022-09-15T17:21:19.746Z,97223.94
2022-09-15T17:23:49.666Z,97221.25
2022-09-15T17:26:31.099Z,97223.94
2022-09-15T17:29:01.662Z,97222.03
2022-09-15T17:31:29.903Z,97226.63
2022-09-15T17:33:57.530Z,97232.81
2022-09-15T17:36:25.201Z,97230.38
2022-09-15T17:38:53.022Z,97225.81
2022-09-15T17:41:22.804Z,97220.44
2022-09-15T17:43:52.353Z,97219.59
2022-09-15T17:46:20.656Z,97228.50
2022-09-15T17:48:48.592Z,97234.69
2022-09-15T17:51:19.843Z,97231.19
2022-09-15T17:53:48.342Z,97222.03
2022-09-15T17:56:16.290Z,97223.13
2022-09-15T17:58:44.971Z,97233.88
2022-09-15T18:01:14.423Z,97237.38
2022-09-15T18:03:44.620Z,97232.00
2022-09-15T18:06:12.344Z,97231.19
2022-09-15T18:08:40.320Z,97232.81
2022-09-15T18:11:13.156Z,97232.81
2022-09-15T18:13:43.949Z,97232.00
2022-09-15T18:16:14.509Z,97238.19
2022-09-15T18:18:43.680Z,97240.06
2022-09-15T18:21:25.351Z,97250.03
2022-09-15T18:23:54.488Z,97251.09
2022-09-15T18:26:26.195Z,97243.03
2022-09-15T18:28:55.930Z,97243.03
2022-09-15T18:31:23.852Z,97249.22
2022-09-15T18:33:51.719Z,97240.34
2022-09-15T18:36:20.870Z,97227.97
2022-09-15T18:38:48.725Z,97241.44
2022-09-15T18:41:17.008Z,97233.34
2022-09-15T18:43:49.145Z,97250.31
2022-09-15T18:46:19.343Z,97242.50
2022-09-15T18:48:47.207Z,97253.25
2022-09-15T18:51:23.808Z,97251.66
2022-09-15T18:53:54.375Z,97251.66
2022-09-15T18:56:22.101Z,97249.22
2022-09-15T18:58:53.958Z,97251.66
2022-09-15T19:01:23.344Z,97248.44
2022-09-15T19:03:51.644Z,97245.44
2022-09-15T19:06:23.600Z,97257.03
2022-09-15T19:08:54.314Z,97260.78
2022-09-15T19:11:23.094Z,97261.59
2022-09-15T19:13:54.139Z,97271.56
2022-09-15T19:16:34.555Z,97268.31
2022-09-15T19:19:10.702Z,97260.53
2022-09-15T19:21:43.144Z,97265.09
2022-09-15T19:24:12.794Z,97268.88
2022-09-15T19:26:44.012Z,97271.81
2022-09-15T19:29:14.409Z,97262.97
2022-09-15T19:31:42.356Z,97264.00
2022-09-15T19:34:11.845Z,97268.59
2022-09-15T19:36:39.823Z,97277.75
2022-09-15T19:39:10.989Z,97285.03
2022-09-15T19:41:38.788Z,97276.97
2022-09-15T19:44:10.558Z,97276.97
2022-09-15T19:46:41.708Z,97272.38
2022-09-15T19:49:11.271Z,97278.03
2022-09-15T19:51:38.972Z,97280.72
2022-09-15T19:54:08.718Z,97281.81
2022-09-15T19:56:36.437Z,97280.72
2022-09-15T19:59:06.435Z,97284.50
2022-09-15T20:01:35.422Z,97290.66
2022-09-15T20:04:04.249Z,97284.50
2022-09-15T20:06:32.936Z,97289.88
2022-09-15T20:09:01.261Z,97287.19
2022-09-15T20:11:30.016Z,97279.13
2022-09-15T20:14:06.701Z,97290.66
2022-09-15T20:16:34.644Z,97288.78
2022-09-15T20:19:04.011Z,97285.56
2022-09-15T20:21:50.759Z,97285.56
2022-09-15T20:24:21.404Z,97281.25
2022-09-15T20:26:49.287Z,97297.41
2022-09-15T20:29:17.152Z,97294.72
2022-09-15T20:31:45.232Z,97301.94
2022-09-15T20:34:12.668Z,97290.38
2022-09-15T20:36:40.502Z,97290.38
2022-09-15T20:39:13.108Z,97285.81
2022-09-15T20:41:45.084Z,97292.28
2022-09-15T20:44:14.909Z,97288.78
2022-09-15T20:46:42.350Z,97288.78
2022-09-15T20:49:10.730Z,97298.72
2022-09-15T20:51:38.993Z,97294.16
2022-09-15T20:54:06.484Z,97305.72
2022-09-15T20:56:35.427Z,97302.50
2022-09-15T20:59:04.611Z,97306.78
2022-09-15T21:01:35.967Z,97314.06
2022-09-15T21:04:08.638Z,97314.06
2022-09-15T21:06:37.241Z,97308.69
2022-09-15T21:09:05.568Z,97318.63
2022-09-15T21:11:33.737Z,97312.47
2022-09-15T21:14:01.784Z,97323.22
2022-09-15T21:16:29.487Z,97320.53
2022-09-15T21:18:58.572Z,97332.09
2022-09-15T21:21:29.862Z,97333.19
2022-09-15T21:24:03.942Z,97337.72
2022-09-15T21:27:01.436Z,97338.56
2022-09-15T21:29:29.183Z,97336.13
2022-09-15T21:31:57.763Z,97341.50
2022-09-15T21:34:26.290Z,97338.81
2022-09-15T21:36:54.216Z,97345.00
2022-09-15T21:39:21.908Z,97346.09
2022-09-15T21:41:50.038Z,97359.25
2022-09-15T21:44:17.357Z,97358.72
2022-09-15T21:46:46.945Z,97357.66
2022-09-15T21:49:14.973Z,97356.03
2022-09-15T21:51:42.315Z,97368.41
2022-09-15T21:54:10.417Z,97361.41
2022-09-15T21:56:37.818Z,97365.19
2022-09-15T21:59:05.504Z,97365.19
2022-09-15T22:01:33.347Z,97368.66
2022-09-15T22:04:06.527Z,97368.66
2022-09-15T22:06:36.584Z,97368.94
2022-09-15T22:09:10.003Z,97371.63
2022-09-15T22:11:38.016Z,97375.13
2022-09-15T22:14:09.597Z,97378.88
2022-09-15T22:16:38.825Z,97370.81
2022-09-15T22:19:08.082Z,97372.69
2022-09-15T22:21:36.972Z,97381.81
2022-09-15T22:24:06.821Z,97382.66
2022-09-15T22:26:37.320Z,97383.47
2022-09-15T22:29:05.808Z,97388.03
2022-09-15T22:31:33.877Z,97397.97
2022-09-15T22:34:02.011Z,97391.53
2022-09-15T22:36:30.608Z,97397.16
2022-09-15T22:39:05.840Z,97391.00
2022-09-15T22:41:39.279Z,97395.28
2022-09-15T22:44:18.834Z,97391.00
2022-09-15T22:46:46.895Z,97391.78
2022-09-15T22:49:14.429Z,97399.06
2022-09-15T22:51:41.837Z,97399.06
2022-09-15T22:54:09.422Z,97401.75
2022-09-15T22:56:36.739Z,97400.94
2022-09-15T22:59:04.144Z,97405.53
2022-09-15T23:01:31.999Z,97416.28
2022-09-15T23:04:01.615Z,97416.28
2022-09-15T23:06:32.203Z,97416.28
2022-09-15T23:09:04.422Z,97410.06
2022-09-15T23:11:33.247Z,97415.44
2022-09-15T23:14:01.776Z,97410.34
2022-09-15T23:16:30.555Z,97411.97
2022-09-15T23:18:59.261Z,97409.28
2022-09-15T23:21:27.982Z,97409.28
2022-09-15T23:23:55.713Z,97415.44
2022-09-15T23:26:24.495Z,97407.66
2022-09-15T23:28:53.263Z,97412.22
2022-09-15T23:31:21.299Z,97416.78
2022-09-15T23:33:48.909Z,97417.59
2022-09-15T23:36:21.922Z,97422.19
2022-09-15T23:38:49.730Z,97424.88
2022-09-15T23:41:18.648Z,97417.88
2022-09-15T23:43:46.664Z,97434.03
2022-09-15T23:46:15.030Z,97427.56
2022-09-15T23:48:42.944Z,97434.03
2022-09-15T23:51:10.273Z,97435.63
2022-09-15T23:53:37.889Z,97435.06
2022-09-15T23:56:05.687Z,97436.72
2022-09-15T23:58:33.149Z,97433.47
